Time;durP1;ratioP1;P1;durP2;ratioP2;P2;SDS_P1;SDS_P2;PMS_P1;PMS_P2;Temp;Humidity;BMP_temperature;BMP_pressure;BME280_temperature;BME280_humidity;BME280_pressure;Samples;Min_cycle;Max_cycle;Signal;HPM_P1;HPM_P2
2022/08/02 01:05:06;;;;;;;4.47;1.70;;;;;;;;;;4988065;28;20057;-85
2022/08/02 01:08:13;;;;;;;6.40;2.28;;;;;;;;;;5001413;28;20056;-84
2022/08/02 01:10:56;;;;;;;6.22;2.05;;;;;;;;;;5021021;28;20066;-85
2022/08/02 01:13:48;;;;;;;4.40;2.00;;;;;;;;;;4968961;28;20958;-85
2022/08/02 01:16:41;;;;;;;6.97;2.15;;;;;;;;;;5010865;28;20141;-85
2022/08/02 01:19:42;;;;;;;4.47;1.90;;;;;;;;;;5013218;28;20092;-84
2022/08/02 01:22:58;;;;;;;5.30;1.85;;;;;;;;;;5001061;28;20045;-85
2022/08/02 01:26:18;;;;;;;7.85;1.90;;;;;;;;;;4996836;28;20098;-85
2022/08/02 01:29:17;;;;;;;4.50;1.98;;;;;;;;;;4972782;28;20972;-85
2022/08/02 01:32:29;;;;;;;6.07;1.92;;;;;;;;;;5013307;28;20045;-85
2022/08/02 01:35:46;;;;;;;3.15;1.60;;;;;;;;;;4952348;28;20831;-85
2022/08/02 01:38:39;;;;;;;4.28;1.70;;;;;;;;;;4946823;28;20515;-85
2022/08/02 01:41:28;;;;;;;5.32;1.70;;;;;;;;;;4943697;28;20113;-85
2022/08/02 01:44:14;;;;;;;4.68;1.77;;;;;;;;;;4931199;28;20117;-84
2022/08/02 01:47:27;;;;;;;4.45;1.83;;;;;;;;;;4957992;28;20054;-84
2022/08/02 01:50:32;;;;;;;5.95;1.98;;;;;;;;;;4947783;28;20114;-84
2022/08/02 01:53:31;;;;;;;4.75;2.25;;;;;;;;;;4958143;28;20050;-84
2022/08/02 01:56:18;;;;;;;4.57;1.80;;;;;;;;;;4959001;28;20105;-84
2022/08/02 01:59:26;;;;;;;5.70;1.85;;;;;;;;;;4932669;28;20162;-84
2022/08/02 02:02:15;;;;;;;5.28;2.47;;;;;;;;;;4946413;28;20062;-84
2022/08/02 02:05:39;;;;;;;5.15;1.85;;;;;;;;;;4914332;28;20133;-84
2022/08/02 02:08:35;;;;;;;6.38;1.98;;;;;;;;;;4940553;28;20234;-84
2022/08/02 02:11:46;;;;;;;4.57;2.00;;;;;;;;;;4908871;28;20046;-84
2022/08/02 02:14:54;;;;;;;6.18;2.00;;;;;;;;;;4951137;28;20059;-84
2022/08/02 02:19:08;;;;;;;5.50;2.10;;;;;;;;;;4893329;29;20110;-85
2022/08/02 02:21:49;;;;;;;;;;;;;;;;;;4909821;29;20060;-84
2022/08/02 02:43:31;;;;;;;6.78;2.00;;;;;;;;;;4932003;28;20114;-84
2022/08/02 02:46:20;;;;;;;4.97;2.00;;;;;;;;;;4964943;28;20054;-84
2022/08/02 02:58:47;;;;;;;5.65;1.80;;;;;;;;;;4966003;28;20050;-84
2022/08/02 03:01:34;;;;;;;5.75;1.80;;;;;;;;;;4938070;28;20094;-84
2022/08/02 03:32:00;;;;;;;4.40;1.80;;;;;;;;;;5015556;28;20058;-84
2022/08/02 03:34:41;;;;;;;3.78;2.08;;;;;;;;;;4984492;28;20139;-84
2022/08/02 03:47:17;;;;;;;3.22;1.77;;;;;;;;;;4975005;28;20972;-84
2022/08/02 03:50:00;;;;;;;5.72;2.13;;;;;;;;;;4964534;28;20054;-84
2022/08/02 04:11:31;;;;;;;4.35;2.30;;;;;;;;;;5012219;28;20136;-84
2022/08/02 04:14:27;;;;;;;5.30;1.90;;;;;;;;;;5003195;28;20074;-84
2022/08/02 04:17:16;;;;;;;4.90;1.83;;;;;;;;;;5004593;28;20132;-84
2022/08/02 04:20:16;;;;;;;5.53;2.05;;;;;;;;;;5005579;28;20153;-84
2022/08/02 04:23:05;;;;;;;4.70;1.83;;;;;;;;;;4997358;28;20064;-82
2022/08/02 04:48:59;;;;;;;4.13;1.80;;;;;;;;;;5017695;28;20115;-84
2022/08/02 04:52:15;;;;;;;4.53;2.20;;;;;;;;;;5010438;28;20046;-84
2022/08/02 04:55:02;;;;;;;5.53;2.03;;;;;;;;;;5026597;28;20065;-84
2022/08/02 04:57:54;;;;;;;6.35;2.50;;;;;;;;;;4968002;28;20058;-84
2022/08/02 05:02:12;;;;;;;5.28;2.40;;;;;;;;;;4939311;28;20494;-85
2022/08/02 05:07:01;;;;;;;5.85;2.33;;;;;;;;;;4942501;28;20051;-85
2022/08/02 05:10:20;;;;;;;4.60;2.38;;;;;;;;;;4947153;28;20067;-83
2022/08/02 05:13:04;;;;;;;6.65;1.90;;;;;;;;;;4961122;28;20061;-84
2022/08/02 05:16:40;;;;;;;7.35;2.38;;;;;;;;;;4938820;28;20494;-84
2022/08/02 05:19:21;;;;;;;5.20;2.00;;;;;;;;;;4927982;29;20521;-84
2022/08/02 05:22:07;;;;;;;5.15;2.15;;;;;;;;;;4941618;28;21903;-85
2022/08/02 05:25:38;;;;;;;7.40;2.67;;;;;;;;;;4943163;28;20146;-84
2022/08/02 05:28:27;;;;;;;8.20;3.00;;;;;;;;;;4944468;28;20129;-87
2022/08/02 05:31:09;;;;;;;7.20;2.72;;;;;;;;;;4976032;28;20835;-85
2022/08/02 05:33:56;;;;;;;5.80;2.58;;;;;;;;;;4968150;28;20165;-84
2022/08/02 05:36:41;;;;;;;7.28;2.72;;;;;;;;;;4991162;28;20077;-84
2022/08/02 05:39:23;;;;;;;7.20;3.10;;;;;;;;;;4966209;28;20063;-82
2022/08/02 05:41:57;;;;;;;6.40;2.97;;;;;;;;;;4977926;28;20620;-83
2022/08/02 05:44:26;;;;;;;6.18;3.10;;;;;;;;;;4981210;28;20073;-85
2022/08/02 05:48:08;;;;;;;7.93;3.47;;;;;;;;;;4958844;28;20067;-84
2022/08/02 06:04:36;;;;;;;7.47;3.13;;;;;;;;;;4874565;29;20631;-83
2022/08/02 06:07:13;;;;;;;10.07;3.70;;;;;;;;;;4870989;29;20168;-84
2022/08/02 06:10:02;;;;;;;5.03;3.10;;;;;;;;;;4868482;29;20053;-83
2022/08/02 06:12:56;;;;;;;12.52;3.50;;;;;;;;;;4865966;29;20165;-84
2022/08/02 06:15:23;;;;;;;8.38;3.47;;;;;;;;;;4871012;29;20267;-83
2022/08/02 06:18:02;;;;;;;11.20;3.60;;;;;;;;;;4883514;29;20109;-82
2022/08/02 06:20:56;;;;;;;9.63;2.80;;;;;;;;;;4907018;29;20196;-82
2022/08/02 06:23:31;;;;;;;8.13;3.10;;;;;;;;;;4908304;29;20262;-81
2022/08/02 06:26:02;;;;;;;5.80;2.85;;;;;;;;;;4973311;28;20068;-82
2022/08/02 06:28:38;;;;;;;10.50;2.75;;;;;;;;;;4996225;28;20050;-82
2022/08/02 06:31:09;;;;;;;14.65;2.63;;;;;;;;;;5006370;28;20077;-84
2022/08/02 06:33:55;;;;;;;12.40;3.35;;;;;;;;;;4980577;28;20976;-83
2022/08/02 06:36:57;;;;;;;9.90;2.80;;;;;;;;;;5007771;28;20861;-82
2022/08/02 06:39:31;;;;;;;19.02;4.32;;;;;;;;;;5010328;28;20046;-81
2022/08/02 06:42:10;;;;;;;12.15;3.55;;;;;;;;;;4999728;28;20084;-81
2022/08/02 06:44:43;;;;;;;17.67;3.65;;;;;;;;;;5022607;28;20053;-80
2022/08/02 06:47:17;;;;;;;12.85;3.80;;;;;;;;;;5028385;28;20045;-80
2022/08/02 06:49:45;;;;;;;18.95;4.05;;;;;;;;;;5028985;28;20532;-82
2022/08/02 06:52:24;;;;;;;15.20;3.63;;;;;;;;;;5016119;28;20240;-80
2022/08/02 06:57:59;;;;;;;16.15;3.10;;;;;;;;;;5029321;28;20045;-81
2022/08/02 07:00:28;;;;;;;13.07;2.78;;;;;;;;;;5032790;28;20096;-81
2022/08/02 07:02:56;;;;;;;11.38;2.00;;;;;;;;;;5029398;28;20061;-80
2022/08/02 07:05:23;;;;;;;11.35;2.00;;;;;;;;;;5030218;28;20361;-80
2022/08/02 07:07:55;;;;;;;6.78;2.42;;;;;;;;;;5042731;28;20068;-81
2022/08/02 07:10:23;;;;;;;8.27;2.00;;;;;;;;;;5021676;28;20057;-80
2022/08/02 07:12:51;;;;;;;7.40;2.33;;;;;;;;;;5021999;28;20556;-80
2022/08/02 07:15:19;;;;;;;6.55;2.25;;;;;;;;;;5033223;28;20108;-79
2022/08/02 07:18:14;;;;;;;9.23;1.80;;;;;;;;;;5030635;28;20077;-80
2022/08/02 07:20:41;;;;;;;4.72;1.67;;;;;;;;;;4999537;28;20073;-80
2022/08/02 07:23:09;;;;;;;5.65;2.35;;;;;;;;;;5033394;28;20045;-80
2022/08/02 07:26:01;;;;;;;8.10;1.90;;;;;;;;;;5033217;28;20045;-79
2022/08/02 07:28:36;;;;;;;6.75;1.90;;;;;;;;;;5031759;28;20046;-80
2022/08/02 07:31:30;;;;;;;8.57;1.70;;;;;;;;;;5030321;28;20046;-80
2022/08/02 07:33:57;;;;;;;4.15;1.50;;;;;;;;;;5018809;28;20108;-79
2022/08/02 07:36:25;;;;;;;6.80;1.60;;;;;;;;;;5008426;28;20151;-80
2022/08/02 07:38:57;;;;;;;8.18;1.73;;;;;;;;;;5022609;28;20061;-81
2022/08/02 07:41:25;;;;;;;4.82;2.30;;;;;;;;;;5025203;28;20041;-80
2022/08/02 07:43:53;;;;;;;7.25;2.10;;;;;;;;;;5011175;28;20123;-80
2022/08/02 07:46:21;;;;;;;5.80;1.90;;;;;;;;;;5023770;28;20041;-80
2022/08/02 07:48:52;;;;;;;5.43;1.70;;;;;;;;;;5016871;28;20517;-80
2022/08/02 07:51:20;;;;;;;5.60;1.65;;;;;;;;;;5031886;28;20057;-80
2022/08/02 07:53:48;;;;;;;7.80;1.75;;;;;;;;;;5023445;28;20080;-80
2022/08/02 07:56:17;;;;;;;9.27;1.90;;;;;;;;;;5030252;28;20240;-79
2022/08/02 07:59:35;;;;;;;7.85;2.50;;;;;;;;;;5027685;28;20132;-80
2022/08/02 08:02:11;;;;;;;9.35;1.98;;;;;;;;;;5007030;28;20072;-83
2022/08/02 08:04:41;;;;;;;6.30;1.73;;;;;;;;;;5006002;28;20058;-82
2022/08/02 08:07:10;;;;;;;5.78;1.77;;;;;;;;;;5017124;28;20085;-82
2022/08/02 08:09:40;;;;;;;9.52;1.83;;;;;;;;;;5017393;28;20061;-83
2022/08/02 08:12:08;;;;;;;8.65;1.90;;;;;;;;;;5019081;28;20041;-82
2022/08/02 08:14:38;;;;;;;10.48;1.75;;;;;;;;;;5020680;28;20046;-81
2022/08/02 08:17:16;;;;;;;9.48;1.83;;;;;;;;;;5002451;28;20111;-81
2022/08/02 08:19:43;;;;;;;8.13;1.80;;;;;;;;;;5022018;28;20060;-81
2022/08/02 08:22:18;;;;;;;8.38;1.70;;;;;;;;;;5021908;28;20132;-81
2022/08/02 08:24:46;;;;;;;9.90;1.52;;;;;;;;;;5005295;28;20050;-82
2022/08/02 08:27:16;;;;;;;8.50;1.67;;;;;;;;;;5020978;28;20104;-81
2022/08/02 08:29:49;;;;;;;5.22;1.67;;;;;;;;;;5020177;28;20049;-82
2022/08/02 08:32:18;;;;;;;7.13;1.70;;;;;;;;;;5004744;28;20042;-82
2022/08/02 08:34:46;;;;;;;8.82;1.60;;;;;;;;;;5020719;28;20077;-81
2022/08/02 08:37:14;;;;;;;5.25;1.65;;;;;;;;;;5019404;28;20107;-81
2022/08/02 08:40:07;;;;;;;9.27;1.77;;;;;;;;;;5020946;28;20486;-81
2022/08/02 08:42:40;;;;;;;7.22;1.52;;;;;;;;;;5020492;28;20486;-82
2022/08/02 08:45:08;;;;;;;8.75;2.05;;;;;;;;;;5018442;28;20057;-82
2022/08/02 08:47:40;;;;;;;7.88;1.70;;;;;;;;;;5019723;28;20046;-82
2022/08/02 08:50:18;;;;;;;8.23;1.60;;;;;;;;;;5018915;28;20050;-82
2022/08/02 08:53:02;;;;;;;7.05;1.77;;;;;;;;;;5017766;28;20146;-81
2022/08/02 08:55:31;;;;;;;6.53;1.50;;;;;;;;;;5021474;28;20049;-82
2022/08/02 08:58:04;;;;;;;5.40;1.45;;;;;;;;;;5012620;28;20057;-81
2022/08/02 09:00:34;;;;;;;6.75;1.63;;;;;;;;;;5017698;28;20042;-81
2022/08/02 09:03:25;;;;;;;9.02;1.50;;;;;;;;;;5018396;28;20052;-82
2022/08/02 09:05:59;;;;;;;7.15;1.50;;;;;;;;;;5016456;28;20070;-81
2022/08/02 09:08:27;;;;;;;6.88;1.52;;;;;;;;;;5019369;28;20498;-82
2022/08/02 09:10:55;;;;;;;6.88;1.45;;;;;;;;;;5015593;28;20067;-82
2022/08/02 09:13:30;;;;;;;5.75;1.30;;;;;;;;;;5016943;28;20046;-82
2022/08/02 09:16:11;;;;;;;10.73;1.80;;;;;;;;;;5002075;28;20073;-81
2022/08/02 09:18:46;;;;;;;7.35;1.38;;;;;;;;;;5015923;28;20060;-81
2022/08/02 09:21:38;;;;;;;6.15;1.60;;;;;;;;;;5016827;28;20044;-81
2022/08/02 09:24:19;;;;;;;7.57;2.55;;;;;;;;;;5019964;28;20448;-82
2022/08/02 09:26:49;;;;;;;4.10;1.63;;;;;;;;;;5017590;28;20416;-81
2022/08/02 09:29:23;;;;;;;7.80;1.42;;;;;;;;;;5018626;28;20465;-82
2022/08/02 09:32:00;;;;;;;7.32;1.30;;;;;;;;;;5010649;28;20050;-82
2022/08/02 09:34:49;;;;;;;7.00;1.25;;;;;;;;;;5014796;28;20132;-82
2022/08/02 09:37:25;;;;;;;6.15;1.50;;;;;;;;;;5017530;28;20045;-82
2022/08/02 09:40:34;;;;;;;5.20;1.33;;;;;;;;;;5017763;28;20072;-82
2022/08/02 09:45:55;;;;;;;8.20;1.60;;;;;;;;;;5016148;28;20152;-83
2022/08/02 09:48:28;;;;;;;7.35;1.20;;;;;;;;;;5012129;28;20121;-84
2022/08/02 09:51:27;;;;;;;6.78;1.73;;;;;;;;;;4986052;28;20037;-83
2022/08/02 09:54:14;;;;;;;6.95;1.40;;;;;;;;;;4992803;28;20481;-83
2022/08/02 09:57:24;;;;;;;6.32;1.30;;;;;;;;;;5013952;28;20088;-83
2022/08/02 10:00:13;;;;;;;6.85;1.50;;;;;;;;;;4996307;28;20145;-84
2022/08/02 10:03:10;;;;;;;5.15;1.30;;;;;;;;;;5015786;28;20068;-85
2022/08/02 10:06:03;;;;;;;6.78;1.50;;;;;;;;;;5010440;28;20283;-85
2022/08/02 10:09:29;;;;;;;6.75;1.65;;;;;;;;;;5002383;28;21076;-83
2022/08/02 10:13:37;;;;;;;7.78;1.50;;;;;;;;;;4988707;28;20050;-85
2022/08/02 10:16:48;;;;;;;5.80;1.30;;;;;;;;;;4958076;28;20069;-84
2022/08/02 10:19:38;;;;;;;5.32;1.40;;;;;;;;;;4971038;28;20058;-84
2022/08/02 10:22:51;;;;;;;5.00;1.88;;;;;;;;;;4948416;28;20059;-86
2022/08/02 10:25:38;;;;;;;8.05;1.90;;;;;;;;;;4932899;28;20066;-84
2022/08/02 10:28:31;;;;;;;5.80;2.03;;;;;;;;;;4963068;28;20062;-84
2022/08/02 10:31:35;;;;;;;7.38;1.85;;;;;;;;;;4955444;28;20050;-84
2022/08/02 10:34:11;;;;;;;7.70;1.75;;;;;;;;;;4944497;28;20061;-82
2022/08/02 10:36:41;;;;;;;6.18;1.23;;;;;;;;;;4961897;28;20054;-83
2022/08/02 10:39:11;;;;;;;6.00;1.50;;;;;;;;;;4965901;28;20408;-83
2022/08/02 10:41:40;;;;;;;5.07;1.50;;;;;;;;;;4964698;28;20061;-83
2022/08/02 10:44:35;;;;;;;6.38;1.60;;;;;;;;;;4940204;28;20126;-83
2022/08/02 10:47:18;;;;;;;8.05;1.60;;;;;;;;;;4951578;28;20058;-83
2022/08/02 10:49:54;;;;;;;11.32;1.90;;;;;;;;;;4975140;28;20062;-83
2022/08/02 10:52:45;;;;;;;7.15;1.60;;;;;;;;;;4974514;28;20137;-83
2022/08/02 10:55:23;;;;;;;9.52;1.70;;;;;;;;;;4959575;28;20054;-83
2022/08/02 10:58:18;;;;;;;5.75;1.75;;;;;;;;;;4986597;28;20523;-84
2022/08/02 11:01:27;;;;;;;4.47;1.30;;;;;;;;;;4987278;28;20649;-83
2022/08/02 11:04:34;;;;;;;;;;;;;;;;;;4960587;28;20058;-84
2022/08/02 11:07:35;;;;;;;4.28;1.20;;;;;;;;;;4972882;28;19926;-84
2022/08/02 11:10:39;;;;;;;4.05;1.20;;;;;;;;;;4989295;28;20142;-83
2022/08/02 11:14:05;;;;;;;8.27;1.38;;;;;;;;;;4964028;28;20050;-81
2022/08/02 11:17:04;;;;;;;6.32;1.67;;;;;;;;;;4976103;28;20588;-85
2022/08/02 11:20:10;;;;;;;5.55;1.38;;;;;;;;;;4971086;28;20051;-83
2022/08/02 11:22:41;;;;;;;7.32;1.92;;;;;;;;;;4979290;28;20046;-84
2022/08/02 11:25:22;;;;;;;8.85;1.52;;;;;;;;;;4973471;28;20054;-84
2022/08/02 11:28:15;;;;;;;4.05;1.10;;;;;;;;;;4981980;28;20056;-84
2022/08/02 11:30:56;;;;;;;4.22;1.15;;;;;;;;;;4961980;28;20102;-85
2022/08/02 11:33:31;;;;;;;5.45;1.30;;;;;;;;;;4978140;28;20050;-82
2022/08/02 11:36:26;;;;;;;6.47;1.10;;;;;;;;;;4981115;28;20070;-86
2022/08/02 11:39:30;;;;;;;5.00;1.20;;;;;;;;;;4960959;28;20141;-83
2022/08/02 11:43:16;;;;;;;4.47;1.42;;;;;;;;;;4960083;28;20043;-84
2022/08/02 11:46:25;;;;;;;4.40;1.25;;;;;;;;;;4976466;28;20177;-85
2022/08/02 11:49:47;;;;;;;4.07;1.05;;;;;;;;;;4997261;28;20056;-84
2022/08/02 11:52:39;;;;;;;3.33;1.00;;;;;;;;;;5002012;28;20810;-84
2022/08/02 11:55:13;;;;;;;3.85;1.17;;;;;;;;;;5010622;28;21201;-84
2022/08/02 11:58:10;;;;;;;4.07;1.08;;;;;;;;;;4989569;28;20049;-85
2022/08/02 12:00:52;;;;;;;2.95;1.00;;;;;;;;;;5013061;28;20145;-83
2022/08/02 12:03:19;;;;;;;4.85;1.25;;;;;;;;;;5027716;28;20974;-84
2022/08/02 12:05:48;;;;;;;4.78;1.25;;;;;;;;;;4979955;28;20045;-84
2022/08/02 12:08:37;;;;;;;6.13;1.23;;;;;;;;;;5011984;28;20042;-84
2022/08/02 12:11:21;;;;;;;4.15;1.25;;;;;;;;;;4995222;28;20485;-83
2022/08/02 12:14:11;;;;;;;4.13;1.10;;;;;;;;;;5009187;28;20052;-84
2022/08/02 12:19:26;;;;;;;3.25;1.10;;;;;;;;;;5028605;28;20050;-84
2022/08/02 12:22:24;;;;;;;4.68;1.27;;;;;;;;;;5002582;28;20112;-84
2022/08/02 12:25:31;;;;;;;2.70;1.08;;;;;;;;;;5012806;28;20065;-83
2022/08/02 12:28:16;;;;;;;4.60;1.40;;;;;;;;;;5015167;28;20055;-82
2022/08/02 12:30:54;;;;;;;5.00;1.30;;;;;;;;;;4995855;28;20057;-83
2022/08/02 12:33:47;;;;;;;5.22;1.20;;;;;;;;;;5013042;28;20045;-84
2022/08/02 12:36:38;;;;;;;4.78;1.33;;;;;;;;;;4999463;28;20049;-84
2022/08/02 12:39:12;;;;;;;4.45;1.02;;;;;;;;;;4994155;28;20056;-83
2022/08/02 12:42:07;;;;;;;5.35;1.10;;;;;;;;;;4994209;28;20056;-83
2022/08/02 12:44:58;;;;;;;5.43;1.40;;;;;;;;;;5014609;28;20817;-83
2022/08/02 12:47:26;;;;;;;2.17;0.82;;;;;;;;;;5010697;28;20041;-84
2022/08/02 12:50:31;;;;;;;9.35;1.40;;;;;;;;;;5014049;28;20183;-83
2022/08/02 12:53:16;;;;;;;7.07;1.88;;;;;;;;;;4996334;28;20501;-84
2022/08/02 12:55:54;;;;;;;2.20;0.93;;;;;;;;;;4994961;28;20053;-82
2022/08/02 12:58:56;;;;;;;5.03;1.10;;;;;;;;;;5013900;28;20053;-82
2022/08/02 13:01:26;;;;;;;4.03;1.38;;;;;;;;;;5011349;28;20421;-86
2022/08/02 13:04:09;;;;;;;8.98;1.35;;;;;;;;;;4995101;28;20402;-84
2022/08/02 13:06:43;;;;;;;6.90;1.20;;;;;;;;;;5009241;28;20295;-84
2022/08/02 13:09:37;;;;;;;6.20;1.23;;;;;;;;;;5011401;28;20041;-83
2022/08/02 13:15:02;;;;;;;3.70;1.20;;;;;;;;;;4968334;28;20057;-83
2022/08/02 13:17:43;;;;;;;4.43;1.15;;;;;;;;;;5011224;28;20072;-83
2022/08/02 13:20:13;;;;;;;3.80;1.10;;;;;;;;;;4994009;28;20049;-83
2022/08/02 13:22:43;;;;;;;24.45;3.47;;;;;;;;;;5011619;28;20049;-84
2022/08/02 13:25:21;;;;;;;8.48;1.60;;;;;;;;;;4995130;28;20068;-84
2022/08/02 13:27:49;;;;;;;5.03;1.20;;;;;;;;;;5001772;28;20527;-83
2022/08/02 13:30:18;;;;;;;5.07;1.40;;;;;;;;;;5026249;28;20136;-83
2022/08/02 13:33:09;;;;;;;4.15;1.35;;;;;;;;;;5012684;28;20480;-84
2022/08/02 13:35:37;;;;;;;5.55;1.42;;;;;;;;;;5002907;28;20139;-83
2022/08/02 13:38:19;;;;;;;3.83;1.65;;;;;;;;;;5012817;28;20104;-84
2022/08/02 13:41:09;;;;;;;6.70;1.85;;;;;;;;;;5012839;28;20156;-84
2022/08/02 13:43:52;;;;;;;5.03;1.20;;;;;;;;;;5011239;28;20096;-84
2022/08/02 13:47:03;;;;;;;3.92;1.10;;;;;;;;;;5015357;28;20080;-84
2022/08/02 13:49:49;;;;;;;4.63;1.15;;;;;;;;;;5001990;28;20509;-84
2022/08/02 13:52:19;;;;;;;2.78;0.98;;;;;;;;;;5014830;28;20053;-84
2022/08/02 13:54:47;;;;;;;3.67;1.08;;;;;;;;;;5011539;28;20144;-83
2022/08/02 13:57:39;;;;;;;5.53;1.90;;;;;;;;;;5001551;28;20041;-83
2022/08/02 14:00:26;;;;;;;3.65;1.10;;;;;;;;;;4995241;28;20112;-83
2022/08/02 14:03:04;;;;;;;2.75;1.10;;;;;;;;;;5000481;28;20057;-83
2022/08/02 14:05:40;;;;;;;6.55;1.25;;;;;;;;;;4978594;28;20054;-83
2022/08/02 14:08:21;;;;;;;5.60;1.20;;;;;;;;;;4993776;28;20050;-83
2022/08/02 14:10:50;;;;;;;2.88;1.13;;;;;;;;;;5010066;28;20370;-83
2022/08/02 14:13:18;;;;;;;4.07;1.20;;;;;;;;;;5013602;28;20041;-83
2022/08/02 14:15:46;;;;;;;4.40;1.13;;;;;;;;;;5014949;28;20567;-83
2022/08/02 14:18:14;;;;;;;4.90;1.15;;;;;;;;;;5012023;28;20601;-83
2022/08/02 14:20:43;;;;;;;3.13;1.00;;;;;;;;;;5013881;28;20065;-83
2022/08/02 14:23:15;;;;;;;3.40;1.30;;;;;;;;;;5012534;28;20053;-84
2022/08/02 14:25:43;;;;;;;5.78;1.40;;;;;;;;;;4997580;28;20300;-82
2022/08/02 14:28:11;;;;;;;4.03;1.38;;;;;;;;;;4999464;28;20049;-83
2022/08/02 14:30:39;;;;;;;4.22;1.42;;;;;;;;;;5002896;28;20583;-83
2022/08/02 14:33:07;;;;;;;3.10;1.20;;;;;;;;;;5009559;28;20050;-83
2022/08/02 14:35:35;;;;;;;3.33;1.13;;;;;;;;;;5013957;28;20069;-84
2022/08/02 14:38:04;;;;;;;2.85;1.10;;;;;;;;;;4995629;28;20104;-84
2022/08/02 14:40:32;;;;;;;3.65;1.38;;;;;;;;;;5008996;28;20049;-84
2022/08/02 14:43:00;;;;;;;4.97;1.23;;;;;;;;;;4997122;28;20046;-84
2022/08/02 14:45:32;;;;;;;2.75;1.05;;;;;;;;;;5013251;28;20057;-83
2022/08/02 14:48:09;;;;;;;3.08;1.45;;;;;;;;;;4994092;28;20060;-83
2022/08/02 14:50:38;;;;;;;4.78;1.38;;;;;;;;;;5011856;28;20386;-83
2022/08/02 14:53:36;;;;;;;3.10;1.30;;;;;;;;;;5011189;28;20124;-83
2022/08/02 14:56:23;;;;;;;3.97;1.50;;;;;;;;;;5003928;28;20528;-83
2022/08/02 14:59:15;;;;;;;5.05;1.40;;;;;;;;;;4996588;28;20140;-83
2022/08/02 15:01:43;;;;;;;3.70;1.65;;;;;;;;;;5012496;28;20498;-83
2022/08/02 15:04:12;;;;;;;5.45;1.38;;;;;;;;;;5011880;28;20107;-83
2022/08/02 15:06:39;;;;;;;3.97;1.30;;;;;;;;;;5007464;28;20059;-82
2022/08/02 15:09:33;;;;;;;2.75;1.40;;;;;;;;;;5015120;28;20129;-83
2022/08/02 15:12:25;;;;;;;5.38;1.45;;;;;;;;;;5000611;28;20100;-83
2022/08/02 15:14:59;;;;;;;2.85;1.33;;;;;;;;;;4982959;28;20060;-83
2022/08/02 15:17:25;;;;;;;3.85;1.23;;;;;;;;;;5017396;28;20374;-83
2022/08/02 15:20:17;;;;;;;4.22;1.30;;;;;;;;;;5016984;28;20052;-83
2022/08/02 15:22:51;;;;;;;3.27;1.40;;;;;;;;;;4996952;28;20060;-83
2022/08/02 15:25:20;;;;;;;3.35;1.38;;;;;;;;;;5015978;28;20308;-83
2022/08/02 15:28:13;;;;;;;4.35;1.60;;;;;;;;;;5013006;28;20478;-83
2022/08/02 15:30:41;;;;;;;4.30;1.40;;;;;;;;;;5032003;28;20046;-83
2022/08/02 15:33:09;;;;;;;2.97;1.30;;;;;;;;;;5015805;28;20056;-83
2022/08/02 15:35:41;;;;;;;7.50;1.63;;;;;;;;;;4998597;28;20417;-83
2022/08/02 15:38:09;;;;;;;3.70;1.75;;;;;;;;;;5015348;28;20073;-83
2022/08/02 15:40:37;;;;;;;3.72;1.42;;;;;;;;;;5015788;28;20065;-83
2022/08/02 15:43:30;;;;;;;3.65;1.60;;;;;;;;;;5000905;28;20145;-83
2022/08/02 15:46:23;;;;;;;5.55;1.50;;;;;;;;;;5015506;28;20046;-84
2022/08/02 15:48:57;;;;;;;8.13;1.70;;;;;;;;;;5012667;28;20150;-83
2022/08/02 15:51:31;;;;;;;5.28;1.60;;;;;;;;;;4997341;28;20115;-83
2022/08/02 15:54:03;;;;;;;2.70;1.30;;;;;;;;;;5005232;28;20042;-84
2022/08/02 15:56:31;;;;;;;3.67;1.60;;;;;;;;;;5005338;28;20509;-81
2022/08/02 15:58:59;;;;;;;3.55;1.48;;;;;;;;;;5016468;28;20151;-83
2022/08/02 16:01:27;;;;;;;5.28;1.55;;;;;;;;;;5013954;28;20144;-83
2022/08/02 16:04:06;;;;;;;3.30;1.50;;;;;;;;;;5016049;28;20049;-83
2022/08/02 16:06:34;;;;;;;3.58;1.45;;;;;;;;;;4996670;28;20053;-82
2022/08/02 16:09:07;;;;;;;4.53;1.43;;;;;;;;;;5015856;28;20056;-82
2022/08/02 16:11:35;;;;;;;4.93;1.60;;;;;;;;;;5016739;28;20472;-82
2022/08/02 16:14:04;;;;;;;3.47;1.58;;;;;;;;;;5016247;28;20133;-82
2022/08/02 16:16:33;;;;;;;5.43;1.70;;;;;;;;;;4980169;28;20112;-82
2022/08/02 16:19:04;;;;;;;3.35;1.80;;;;;;;;;;5030144;28;20054;-82
2022/08/02 16:21:52;;;;;;;3.58;1.65;;;;;;;;;;5027989;28;20054;-82
2022/08/02 16:24:43;;;;;;;4.85;1.85;;;;;;;;;;4994394;28;20120;-83
2022/08/02 16:27:12;;;;;;;5.10;1.73;;;;;;;;;;5002177;28;20080;-83
2022/08/02 16:29:39;;;;;;;3.33;1.50;;;;;;;;;;5014551;28;20675;-84
2022/08/02 16:32:09;;;;;;;3.85;1.73;;;;;;;;;;4996351;28;20127;-86
2022/08/02 16:35:22;;;;;;;4.13;1.80;;;;;;;;;;4995586;28;20096;-82
2022/08/02 16:37:53;;;;;;;3.28;1.70;;;;;;;;;;5014252;28;20079;-82
2022/08/02 16:40:21;;;;;;;5.10;1.60;;;;;;;;;;5014723;28;20045;-82
2022/08/02 16:43:13;;;;;;;2.60;1.40;;;;;;;;;;5015253;28;20487;-82
2022/08/02 16:45:41;;;;;;;3.03;1.50;;;;;;;;;;4979575;28;20055;-81
2022/08/02 16:48:11;;;;;;;4.18;1.45;;;;;;;;;;5012495;28;20176;-82
2022/08/02 16:50:39;;;;;;;3.35;1.73;;;;;;;;;;4995131;28;20045;-82
2022/08/02 16:53:14;;;;;;;5.33;1.60;;;;;;;;;;5016120;28;20064;-82
2022/08/02 16:56:02;;;;;;;4.45;1.73;;;;;;;;;;4996757;28;20885;-82
2022/08/02 16:58:35;;;;;;;7.57;1.70;;;;;;;;;;5015538;28;20951;-82
2022/08/02 17:01:19;;;;;;;4.90;1.73;;;;;;;;;;4999063;28;20159;-82
2022/08/02 17:03:53;;;;;;;5.07;1.80;;;;;;;;;;4989915;28;20061;-82
2022/08/02 17:06:28;;;;;;;4.40;1.75;;;;;;;;;;5013131;28;20160;-82
2022/08/02 17:09:10;;;;;;;5.03;1.65;;;;;;;;;;4993771;28;20066;-82
2022/08/02 17:11:59;;;;;;;3.63;1.60;;;;;;;;;;5013294;28;20053;-82
2022/08/02 17:14:36;;;;;;;4.17;1.70;;;;;;;;;;5010162;28;20049;-82
2022/08/02 17:17:25;;;;;;;4.40;1.52;;;;;;;;;;5023692;28;20042;-82
2022/08/02 17:20:03;;;;;;;4.30;1.80;;;;;;;;;;4994936;28;20060;-82
2022/08/02 17:22:55;;;;;;;5.40;1.90;;;;;;;;;;5027576;28;20049;-83
2022/08/02 17:25:37;;;;;;;5.75;1.73;;;;;;;;;;4973325;28;20057;-82
2022/08/02 17:28:33;;;;;;;8.35;2.58;;;;;;;;;;5017848;28;20053;-83
2022/08/02 17:31:21;;;;;;;3.72;1.77;;;;;;;;;;5001184;28;20050;-83
2022/08/02 17:33:56;;;;;;;2.80;1.50;;;;;;;;;;4998007;28;20359;-83
2022/08/02 17:36:27;;;;;;;3.95;1.67;;;;;;;;;;5008606;28;20053;-83
2022/08/02 17:38:56;;;;;;;3.42;1.63;;;;;;;;;;4997268;28;20156;-83
2022/08/02 17:41:29;;;;;;;3.43;1.63;;;;;;;;;;4995074;28;20049;-83
2022/08/02 17:44:05;;;;;;;3.58;1.80;;;;;;;;;;5002423;28;20407;-83
2022/08/02 17:46:35;;;;;;;3.33;2.00;;;;;;;;;;5012552;28;20045;-84
2022/08/02 17:49:18;;;;;;;5.70;2.00;;;;;;;;;;4997806;28;20103;-83
2022/08/02 17:51:48;;;;;;;4.28;2.03;;;;;;;;;;5009617;28;20054;-83
2022/08/02 17:55:01;;;;;;;4.00;1.75;;;;;;;;;;5023195;28;20100;-83
2022/08/02 17:57:29;;;;;;;3.25;1.70;;;;;;;;;;5002185;28;20052;-83
2022/08/02 18:00:18;;;;;;;4.28;1.98;;;;;;;;;;5008916;28;20050;-83
2022/08/02 18:02:51;;;;;;;6.22;2.22;;;;;;;;;;4988061;28;20461;-83
2022/08/02 18:05:27;;;;;;;4.43;2.38;;;;;;;;;;4976247;28;20054;-82
2022/08/02 18:08:13;;;;;;;3.20;1.88;;;;;;;;;;4993980;28;20050;-83
2022/08/02 18:10:45;;;;;;;6.22;1.80;;;;;;;;;;4979791;28;20511;-83
2022/08/02 18:13:13;;;;;;;5.82;1.80;;;;;;;;;;4992654;28;20062;-83
2022/08/02 18:15:51;;;;;;;4.18;1.70;;;;;;;;;;4978068;28;20248;-83
2022/08/02 18:18:24;;;;;;;3.88;1.83;;;;;;;;;;4973501;28;20053;-83
2022/08/02 18:20:59;;;;;;;2.80;1.60;;;;;;;;;;4974483;28;20046;-83
2022/08/02 18:23:49;;;;;;;5.53;1.73;;;;;;;;;;4992646;28;20185;-83
2022/08/02 18:26:39;;;;;;;9.05;1.92;;;;;;;;;;4982064;28;20054;-82
2022/08/02 18:29:31;;;;;;;4.70;1.77;;;;;;;;;;4992078;28;20489;-83
2022/08/02 18:32:06;;;;;;;4.22;1.80;;;;;;;;;;4989115;28;20053;-83
2022/08/02 18:34:37;;;;;;;5.07;1.90;;;;;;;;;;4990794;28;20073;-83
2022/08/02 18:37:13;;;;;;;2.78;1.50;;;;;;;;;;5000938;28;20058;-83
2022/08/02 18:39:43;;;;;;;7.53;2.20;;;;;;;;;;5007656;28;20133;-83
2022/08/02 18:42:43;;;;;;;3.88;2.00;;;;;;;;;;4990677;28;20072;-83
2022/08/02 18:45:15;;;;;;;4.15;1.95;;;;;;;;;;4979159;28;20050;-83
2022/08/02 18:47:49;;;;;;;4.80;2.15;;;;;;;;;;4980769;28;20529;-83
2022/08/02 18:50:41;;;;;;;4.22;2.22;;;;;;;;;;4995717;28;20119;-83
2022/08/02 18:53:16;;;;;;;6.03;1.90;;;;;;;;;;4986155;28;20421;-83
2022/08/02 18:56:04;;;;;;;4.25;1.50;;;;;;;;;;4985071;28;20058;-83
2022/08/02 18:58:33;;;;;;;5.43;2.00;;;;;;;;;;4979624;28;20524;-83
2022/08/02 19:01:33;;;;;;;8.55;1.85;;;;;;;;;;4995572;28;20065;-83
2022/08/02 19:04:15;;;;;;;6.20;1.70;;;;;;;;;;4979059;28;20172;-83
2022/08/02 19:06:59;;;;;;;4.50;2.10;;;;;;;;;;4997410;28;20058;-83
2022/08/02 19:09:59;;;;;;;6.40;1.90;;;;;;;;;;4987998;28;20061;-83
2022/08/02 19:12:27;;;;;;;4.03;2.03;;;;;;;;;;4994526;28;20511;-83
2022/08/02 19:15:00;;;;;;;4.60;1.88;;;;;;;;;;4979772;28;20054;-83
2022/08/02 19:17:32;;;;;;;3.60;2.13;;;;;;;;;;4993641;28;20159;-83
2022/08/02 19:20:19;;;;;;;4.20;1.80;;;;;;;;;;4978842;28;20081;-83
2022/08/02 19:22:48;;;;;;;4.72;2.08;;;;;;;;;;4966632;28;20054;-83
2022/08/02 19:25:20;;;;;;;4.53;2.38;;;;;;;;;;4993267;28;20123;-83
2022/08/02 19:27:53;;;;;;;4.13;1.73;;;;;;;;;;4994400;28;20494;-83
2022/08/02 19:30:21;;;;;;;7.90;2.70;;;;;;;;;;4983760;28;20062;-83
2022/08/02 19:32:59;;;;;;;4.45;1.88;;;;;;;;;;4994194;28;20082;-83
2022/08/02 19:35:39;;;;;;;4.45;2.22;;;;;;;;;;4985174;28;20735;-83
2022/08/02 19:38:31;;;;;;;4.43;1.98;;;;;;;;;;4985122;28;20050;-83